createdAt,value
2018-10-02T00:04:56.459Z,98.30
2018-10-02T00:09:59.981Z,98.30
2018-10-02T00:15:03.839Z,98.10
2018-10-02T00:20:08.265Z,97.70
2018-10-02T00:25:12.834Z,97.30
2018-10-02T00:30:16.507Z,96.80
2018-10-02T00:35:20.017Z,96.40
2018-10-02T00:40:23.552Z,96.60
2018-10-02T00:45:27.322Z,96.80
2018-10-02T00:50:31.159Z,97.40
2018-10-02T00:55:35.368Z,97.60
2018-10-02T01:00:39.858Z,97.50
2018-10-02T01:05:43.354Z,97.90
2018-10-02T01:10:46.832Z,98.30
2018-10-02T01:15:50.505Z,99.00
2018-10-02T01:20:54.022Z,98.20
2018-10-02T01:25:57.510Z,97.80
2018-10-02T01:31:01.229Z,97.20
2018-10-02T01:36:06.290Z,97.10
2018-10-02T01:41:09.817Z,97.00
2018-10-02T01:46:13.261Z,97.10
2018-10-02T01:51:16.733Z,96.60
2018-10-02T01:56:20.261Z,96.40
2018-10-02T02:01:25.080Z,96.60
2018-10-02T02:06:28.808Z,96.70
2018-10-02T02:11:32.746Z,96.70
2018-10-02T02:16:36.538Z,96.90
2018-10-02T02:21:40.040Z,97.30
2018-10-02T02:26:43.478Z,97.60
2018-10-02T02:31:47.090Z,97.40
2018-10-02T02:36:50.580Z,97.20
2018-10-02T02:41:54.996Z,97.10
2018-10-02T02:47:04.393Z,97.50
2018-10-02T02:52:08.202Z,97.60
2018-10-02T02:57:12.454Z,97.70
2018-10-02T03:02:16.024Z,97.50
2018-10-02T03:07:19.826Z,97.40
2018-10-02T03:12:23.367Z,97.50
2018-10-02T03:17:27.474Z,97.50
2018-10-02T03:22:31.110Z,97.40
2018-10-02T03:27:35.736Z,97.50
2018-10-02T03:32:39.315Z,97.40
2018-10-02T03:37:43.075Z,97.50
2018-10-02T03:42:46.995Z,97.80
2018-10-02T03:47:50.514Z,98.10
2018-10-02T03:52:54.440Z,97.90
2018-10-02T03:57:58.072Z,97.70
2018-10-02T04:03:02.913Z,98.00
2018-10-02T04:08:06.496Z,98.10
2018-10-02T04:13:10.058Z,98.10
2018-10-02T04:18:13.674Z,99.10
2018-10-02T04:23:17.210Z,98.90
2018-10-02T04:28:20.968Z,99.00
2018-10-02T04:33:24.852Z,98.90
2018-10-02T04:38:28.540Z,99.00
2018-10-02T04:43:33.065Z,99.20
2018-10-02T04:48:36.521Z,99.30
2018-10-02T04:53:40.026Z,99.00
2018-10-02T04:58:43.560Z,99.50
2018-10-02T05:03:47.234Z,99.70
2018-10-02T05:08:51.622Z,99.90
2018-10-02T05:13:55.371Z,99.90
2018-10-02T05:18:59.594Z,99.90
2018-10-02T05:24:04.365Z,99.90
2018-10-02T05:29:07.977Z,99.90
2018-10-02T05:34:11.758Z,99.90
2018-10-02T05:39:15.611Z,99.90
2018-10-02T05:44:19.779Z,99.90
2018-10-02T05:49:23.827Z,99.90
2018-10-02T05:54:27.340Z,99.50
2018-10-02T05:59:31.011Z,99.40
2018-10-02T06:04:35.242Z,99.20
2018-10-02T06:09:38.730Z,99.10
2018-10-02T06:14:42.376Z,98.80
2018-10-02T06:19:45.944Z,99.10
2018-10-02T06:24:49.844Z,98.30
2018-10-02T06:29:53.528Z,95.40
2018-10-02T06:34:57.404Z,95.60
2018-10-02T06:40:01.238Z,91.50
2018-10-02T06:45:07.019Z,78.50
2018-10-02T06:50:10.882Z,76.60
2018-10-02T06:55:15.521Z,80.00
2018-10-02T07:00:18.997Z,86.80
2018-10-02T07:05:22.552Z,91.00
2018-10-02T07:10:26.489Z,92.40
2018-10-02T07:15:30.369Z,93.10
2018-10-02T07:20:34.692Z,92.80
2018-10-02T07:25:38.207Z,92.10
2018-10-02T07:30:42.091Z,91.30
2018-10-02T07:35:45.565Z,90.10
2018-10-02T07:40:49.126Z,86.40
2018-10-02T07:45:52.572Z,85.70
2018-10-02T07:50:56.244Z,85.80
2018-10-02T07:55:59.843Z,83.80
2018-10-02T08:01:03.428Z,82.40
2018-10-02T08:06:09.791Z,78.20
2018-10-02T08:11:23.023Z,79.80
2018-10-02T08:16:26.538Z,80.20
2018-10-02T08:21:30.082Z,79.50
2018-10-02T08:26:33.841Z,75.80
2018-10-02T08:31:37.326Z,74.10
2018-10-02T08:36:40.859Z,73.80
2018-10-02T08:41:44.518Z,70.50
2018-10-02T08:46:48.288Z,70.00
2018-10-02T08:51:51.992Z,58.60
2018-10-02T08:56:55.496Z,49.80
2018-10-02T09:01:58.947Z,49.80
2018-10-02T09:07:02.535Z,54.80
2018-10-02T09:12:06.045Z,54.20
2018-10-02T09:17:09.619Z,51.20
2018-10-02T09:22:13.734Z,51.40
2018-10-02T09:27:17.245Z,53.90
2018-10-02T09:32:26.531Z,53.10
2018-10-02T09:37:35.255Z,53.70
2018-10-02T09:42:44.158Z,52.70
2018-10-02T09:47:47.841Z,54.70
2018-10-02T09:52:51.764Z,56.10
2018-10-02T09:57:55.462Z,56.20
2018-10-02T10:02:58.997Z,57.40
2018-10-02T10:08:02.902Z,56.60
2018-10-02T10:13:06.439Z,54.80
2018-10-02T10:18:09.988Z,54.80
2018-10-02T10:23:13.680Z,54.30
2018-10-02T10:28:17.296Z,56.90
2018-10-02T10:33:21.154Z,59.90
2018-10-02T10:38:24.807Z,58.00
2018-10-02T10:43:28.625Z,58.70
2018-10-02T10:48:32.216Z,57.30
2018-10-02T10:53:35.756Z,57.00
2018-10-02T10:58:39.321Z,55.50
2018-10-02T11:03:42.890Z,56.90
2018-10-02T11:08:46.477Z,54.20
2018-10-02T11:13:50.244Z,55.60
2018-10-02T11:18:54.547Z,55.30
2018-10-02T11:23:58.249Z,56.30
2018-10-02T11:29:01.991Z,57.40
2018-10-02T11:34:05.504Z,55.70
2018-10-02T11:39:09.082Z,55.40
2018-10-02T11:44:13.017Z,55.60
2018-10-02T11:49:16.576Z,56.40
2018-10-02T11:54:20.269Z,55.30
2018-10-02T11:59:24.090Z,52.30
2018-10-02T12:04:27.612Z,53.70
2018-10-02T12:09:31.176Z,54.90
2018-10-02T12:14:34.659Z,52.90
2018-10-02T12:19:38.257Z,53.30
2018-10-02T12:24:41.661Z,50.90
2018-10-02T12:29:45.254Z,51.90
2018-10-02T12:34:48.798Z,52.40
2018-10-02T12:39:52.591Z,51.70
2018-10-02T12:44:56.328Z,53.10
2018-10-02T12:50:00.060Z,53.40
2018-10-02T12:55:03.818Z,54.10
2018-10-02T13:00:07.632Z,52.00
2018-10-02T13:05:11.146Z,52.70
2018-10-02T13:10:14.739Z,52.70
2018-10-02T13:15:18.229Z,54.70
2018-10-02T13:20:21.734Z,56.20
2018-10-02T13:25:25.659Z,56.60
2018-10-02T13:30:29.969Z,57.20
2018-10-02T13:35:33.743Z,58.70
2018-10-02T13:40:37.478Z,60.00
2018-10-02T13:45:41.042Z,58.30
2018-10-02T13:50:44.856Z,59.50
2018-10-02T13:55:48.534Z,58.90
2018-10-02T14:00:52.287Z,59.50
2018-10-02T14:05:56.816Z,59.70
2018-10-02T14:11:00.936Z,60.70
2018-10-02T14:16:04.437Z,61.70
2018-10-02T14:21:08.615Z,62.60
2018-10-02T14:26:12.184Z,64.50
2018-10-02T14:31:16.074Z,67.30
2018-10-02T14:36:19.809Z,70.60
2018-10-02T14:41:23.950Z,70.60
2018-10-02T14:46:28.112Z,69.30
2018-10-02T14:51:31.944Z,68.30
2018-10-02T14:56:35.573Z,67.30
2018-10-02T15:01:39.099Z,67.30
2018-10-02T15:06:42.674Z,67.40
2018-10-02T15:11:46.488Z,67.10
2018-10-02T15:16:51.244Z,67.80
2018-10-02T15:21:55.367Z,68.00
2018-10-02T15:26:59.323Z,68.30
2018-10-02T15:32:03.161Z,68.10
2018-10-02T15:37:07.241Z,67.80
2018-10-02T15:42:13.697Z,67.70
2018-10-02T15:47:17.366Z,68.00
2018-10-02T15:52:21.281Z,69.00
2018-10-02T15:57:25.180Z,69.20
2018-10-02T16:02:29.227Z,70.30
2018-10-02T16:07:33.759Z,70.20
2018-10-02T16:12:37.477Z,70.40
2018-10-02T16:17:41.996Z,70.30
2018-10-02T16:22:46.356Z,69.90
2018-10-02T16:27:50.413Z,69.10
2018-10-02T16:32:54.333Z,69.00
2018-10-02T16:37:58.149Z,67.60
2018-10-02T16:43:01.669Z,67.20
2018-10-02T16:48:05.965Z,67.80
2018-10-02T16:53:09.985Z,69.00
2018-10-02T16:58:49.529Z,68.40
2018-10-02T17:03:53.142Z,70.00
2018-10-02T17:08:56.605Z,70.20
2018-10-02T17:14:00.386Z,70.30
2018-10-02T17:19:03.997Z,70.60
2018-10-02T17:24:07.541Z,70.90
2018-10-02T17:29:11.115Z,72.20
2018-10-02T17:34:15.090Z,71.30
2018-10-02T17:39:19.027Z,72.30
2018-10-02T17:44:22.735Z,71.90
2018-10-02T17:49:26.241Z,71.60
2018-10-02T17:54:29.790Z,72.20
2018-10-02T17:59:33.338Z,71.70
2018-10-02T18:04:36.874Z,71.50
2018-10-02T18:15:18.993Z,72.20
2018-10-02T18:20:22.887Z,72.80
2018-10-02T18:25:26.426Z,72.80
2018-10-02T18:30:29.943Z,72.90
2018-10-02T18:35:33.655Z,72.60
2018-10-02T18:40:37.255Z,72.50
2018-10-02T18:45:40.959Z,73.10
2018-10-02T18:50:45.141Z,72.70
2018-10-02T18:55:49.220Z,73.30
2018-10-02T19:00:53.218Z,74.40
2018-10-02T19:05:57.496Z,74.60
2018-10-02T19:11:06.489Z,75.00
2018-10-02T19:16:26.024Z,76.30
2018-10-02T19:21:30.129Z,77.40
2018-10-02T19:26:33.886Z,77.70
2018-10-02T19:31:43.174Z,78.10
2018-10-02T19:36:47.121Z,79.00
2018-10-02T19:41:51.497Z,79.20
2018-10-02T19:46:56.453Z,79.70
2018-10-02T19:52:06.625Z,80.10
2018-10-02T19:57:12.145Z,81.40
2018-10-02T20:02:16.063Z,80.70
2018-10-02T20:07:19.717Z,80.60
2018-10-02T20:12:23.465Z,80.50
2018-10-02T20:17:27.196Z,80.40
2018-10-02T20:22:31.231Z,81.40
2018-10-02T20:27:35.874Z,81.30
2018-10-02T20:32:40.258Z,81.60
2018-10-02T20:37:45.034Z,82.20
2018-10-02T20:42:49.215Z,83.20
2018-10-02T20:47:53.279Z,84.50
2018-10-02T20:53:01.300Z,84.70
2018-10-02T20:58:09.877Z,85.40
2018-10-02T21:03:18.117Z,85.80
2018-10-02T21:08:22.837Z,85.30
2018-10-02T21:13:26.638Z,85.00
2018-10-02T21:18:30.260Z,84.20
2018-10-02T21:23:33.770Z,84.10
2018-10-02T21:28:37.434Z,84.10
2018-10-02T21:33:41.845Z,84.30
2018-10-02T21:38:45.508Z,83.50
2018-10-02T21:43:49.653Z,84.00
2018-10-02T21:48:53.488Z,84.20
2018-10-02T21:53:57.393Z,84.00
2018-10-02T21:59:01.476Z,84.80
2018-10-02T22:04:05.160Z,85.80
2018-10-02T22:09:10.060Z,87.00
2018-10-02T22:14:14.369Z,88.00
2018-10-02T22:19:18.285Z,87.40
2018-10-02T22:24:22.996Z,87.10
2018-10-02T22:29:26.693Z,87.00
2018-10-02T22:34:30.639Z,87.00
2018-10-02T22:39:34.206Z,86.80
2018-10-02T22:44:38.017Z,86.50
2018-10-02T22:49:42.041Z,86.90
2018-10-02T22:54:46.455Z,87.60
2018-10-02T22:59:50.425Z,87.90
2018-10-02T23:04:56.252Z,87.90
2018-10-02T23:09:59.922Z,88.00
2018-10-02T23:15:03.565Z,87.80
2018-10-02T23:20:07.220Z,87.80
2018-10-02T23:25:10.777Z,88.50
2018-10-02T23:30:14.426Z,90.00
2018-10-02T23:35:17.990Z,89.90
2018-10-02T23:40:21.820Z,89.70
2018-10-02T23:45:25.660Z,90.00
2018-10-02T23:50:29.810Z,89.50
2018-10-02T23:55:34.199Z,89.70
